createdAt,value
2018-04-16T00:00:52.733Z,74.64
2018-04-16T00:03:20.235Z,74.59
2018-04-16T00:05:48.547Z,74.49
2018-04-16T00:08:16.102Z,74.35
2018-04-16T00:10:44.724Z,74.43
2018-04-16T00:13:13.030Z,74.25
2018-04-16T00:15:41.179Z,74.25
2018-04-16T00:18:08.846Z,74.27
2018-04-16T00:20:36.628Z,74.12
2018-04-16T00:23:04.607Z,74.32
2018-04-16T00:25:33.025Z,74.38
2018-04-16T00:28:00.573Z,74.36
2018-04-16T00:30:28.173Z,74.47
2018-04-16T00:33:01.279Z,74.31
2018-04-16T00:35:34.390Z,74.61
2018-04-16T00:38:08.370Z,74.99
2018-04-16T00:40:42.612Z,75.02
2018-04-16T00:43:15.495Z,75.13
2018-04-16T00:46:03.174Z,75.50
2018-04-16T00:48:37.203Z,75.86
2018-04-16T00:51:10.382Z,75.41
2018-04-16T00:53:56.274Z,75.92
2018-04-16T00:56:38.751Z,75.54
2018-04-16T00:59:11.995Z,75.62
2018-04-16T01:01:45.031Z,75.63
2018-04-16T01:04:18.273Z,75.38
2018-04-16T01:06:51.409Z,75.53
2018-04-16T01:09:24.668Z,75.34
2018-04-16T01:11:58.226Z,75.52
2018-04-16T01:14:31.859Z,75.49
2018-04-16T01:17:04.995Z,75.25
2018-04-16T01:19:38.120Z,75.28
2018-04-16T01:22:11.863Z,75.14
2018-04-16T01:24:44.985Z,75.02
2018-04-16T01:27:18.121Z,75.14
2018-04-16T01:29:51.165Z,75.21
2018-04-16T01:32:24.516Z,75.15
2018-04-16T01:34:57.700Z,75.28
2018-04-16T01:37:30.834Z,75.49
2018-04-16T01:40:04.615Z,75.49
2018-04-16T01:42:37.698Z,75.42
2018-04-16T01:45:11.642Z,75.40
2018-04-16T01:47:45.966Z,75.52
2018-04-16T01:50:28.415Z,75.81
2018-04-16T01:53:01.765Z,75.62
2018-04-16T01:55:35.680Z,75.79
2018-04-16T01:58:08.810Z,75.80
2018-04-16T02:00:41.959Z,75.72
2018-04-16T02:03:15.042Z,75.72
2018-04-16T02:05:48.182Z,75.62
2018-04-16T02:08:21.322Z,75.75
2018-04-16T02:10:54.882Z,75.80
2018-04-16T02:13:28.852Z,75.66
2018-04-16T02:16:02.709Z,75.67
2018-04-16T02:18:35.733Z,75.52
2018-04-16T02:21:09.790Z,75.57
2018-04-16T02:23:42.846Z,75.92
2018-04-16T02:26:16.630Z,75.89
2018-04-16T02:28:49.946Z,75.96
2018-04-16T02:31:22.935Z,75.91
2018-04-16T02:33:56.817Z,75.73
2018-04-16T02:36:29.882Z,75.61
2018-04-16T02:39:04.071Z,75.40
2018-04-16T02:41:37.475Z,75.22
2018-04-16T02:44:11.254Z,75.17
2018-04-16T02:46:44.403Z,75.13
2018-04-16T02:49:18.313Z,75.11
2018-04-16T02:51:51.502Z,75.03
2018-04-16T02:54:26.331Z,75.02
2018-04-16T02:56:59.395Z,75.13
2018-04-16T02:59:33.142Z,75.03
2018-04-16T03:02:06.393Z,75.01
2018-04-16T03:04:39.694Z,75.00
2018-04-16T03:07:12.790Z,74.88
2018-04-16T03:09:45.922Z,74.94
2018-04-16T03:12:19.434Z,75.04
2018-04-16T03:14:54.331Z,75.09
2018-04-16T03:17:28.067Z,75.28
2018-04-16T03:20:01.103Z,75.46
2018-04-16T03:22:34.319Z,75.61
2018-04-16T03:25:07.561Z,75.71
2018-04-16T03:27:40.764Z,75.90
2018-04-16T03:30:14.868Z,75.95
2018-04-16T03:32:48.840Z,76.03
2018-04-16T03:35:21.919Z,76.15
2018-04-16T03:37:55.205Z,75.88
2018-04-16T03:40:28.923Z,75.79
2018-04-16T03:43:02.022Z,75.88
2018-04-16T03:45:36.001Z,76.02
2018-04-16T03:48:09.961Z,76.15
2018-04-16T03:50:43.217Z,76.29
2018-04-16T03:53:16.366Z,76.43
2018-04-16T03:56:03.399Z,76.64
2018-04-16T03:58:31.666Z,76.61
2018-04-16T04:00:59.207Z,76.63
2018-04-16T04:03:26.773Z,76.56
2018-04-16T04:05:54.342Z,76.44
2018-04-16T04:08:21.879Z,76.48
2018-04-16T04:10:50.120Z,76.51
2018-04-16T04:13:18.484Z,76.35
2018-04-16T04:15:46.678Z,76.36
2018-04-16T04:18:14.207Z,76.23
2018-04-16T04:20:41.747Z,76.13
2018-04-16T04:23:21.010Z,75.99
2018-04-16T04:26:02.099Z,75.87
2018-04-16T04:31:36.067Z,75.95
2018-04-16T04:34:03.606Z,76.02
2018-04-16T04:36:31.142Z,76.09
2018-04-16T04:38:59.126Z,76.05
2018-04-16T04:41:26.651Z,75.95
2018-04-16T04:43:54.799Z,75.93
2018-04-16T04:46:22.333Z,75.84
2018-04-16T04:48:50.379Z,75.72
2018-04-16T04:51:17.937Z,75.57
2018-04-16T04:53:46.314Z,75.49
2018-04-16T04:56:13.857Z,75.44
2018-04-16T04:58:41.904Z,75.49
2018-04-16T05:01:09.463Z,75.58
2018-04-16T05:03:37.777Z,75.61
2018-04-16T05:06:05.471Z,75.58
2018-04-16T05:08:33.013Z,75.30
2018-04-16T05:11:01.517Z,74.97
2018-04-16T05:13:29.811Z,74.53
2018-04-16T05:15:57.833Z,74.15
2018-04-16T05:18:25.384Z,73.86
2018-04-16T05:20:52.951Z,73.65
2018-04-16T05:23:20.520Z,73.52
2018-04-16T05:25:48.066Z,73.32
2018-04-16T05:28:15.674Z,73.13
2018-04-16T05:30:43.361Z,72.85
2018-04-16T05:33:11.692Z,72.70
2018-04-16T05:35:39.753Z,72.75
2018-04-16T05:38:08.225Z,72.88
2018-04-16T05:40:35.778Z,72.82
2018-04-16T05:43:03.343Z,72.89
2018-04-16T05:45:31.365Z,72.86
2018-04-16T05:47:59.681Z,72.58
2018-04-16T05:50:27.238Z,72.31
2018-04-16T05:52:54.798Z,72.20
2018-04-16T05:55:23.100Z,71.83
2018-04-16T05:57:51.204Z,71.68
2018-04-16T06:00:18.877Z,71.55
2018-04-16T06:02:46.431Z,71.42
2018-04-16T06:05:14.009Z,71.25
2018-04-16T06:07:41.544Z,71.19
2018-04-16T06:10:09.890Z,71.23
2018-04-16T06:12:38.252Z,71.17
2018-04-16T06:15:06.425Z,71.27
2018-04-16T06:17:33.990Z,71.27
2018-04-16T06:20:01.646Z,71.24
2018-04-16T06:22:29.405Z,71.24
2018-04-16T06:24:56.992Z,71.39
2018-04-16T06:27:24.791Z,71.28
2018-04-16T06:29:52.441Z,71.46
2018-04-16T06:32:20.576Z,71.62
2018-04-16T06:34:48.105Z,71.57
2018-04-16T06:37:15.644Z,71.67
2018-04-16T06:39:43.870Z,71.83
2018-04-16T06:42:11.475Z,72.13
2018-04-16T06:44:39.700Z,72.42
2018-04-16T06:47:07.275Z,72.71
2018-04-16T06:49:35.267Z,72.65
2018-04-16T06:52:02.830Z,72.69
2018-04-16T06:54:30.783Z,72.66
2018-04-16T06:56:58.358Z,72.41
2018-04-16T06:59:26.847Z,72.13
2018-04-16T07:01:54.426Z,71.73
2018-04-16T07:04:21.981Z,71.68
2018-04-16T07:06:49.571Z,71.57
2018-04-16T07:09:17.721Z,71.46
2018-04-16T07:11:45.920Z,71.24
2018-04-16T07:14:14.011Z,70.84
2018-04-16T07:16:41.618Z,70.62
2018-04-16T07:19:10.125Z,70.45
2018-04-16T07:21:38.406Z,70.30
2018-04-16T07:24:05.988Z,70.17
2018-04-16T07:26:33.560Z,69.91
2018-04-16T07:29:01.145Z,70.26
2018-04-16T07:31:28.694Z,70.54
2018-04-16T07:33:56.748Z,70.87
2018-04-16T07:36:24.331Z,70.83
2018-04-16T07:38:52.792Z,70.87
2018-04-16T07:41:20.773Z,70.63
2018-04-16T07:43:48.973Z,70.75
2018-04-16T07:46:16.467Z,70.76
2018-04-16T07:48:44.558Z,70.69
2018-04-16T07:51:12.114Z,71.07
2018-04-16T07:53:40.368Z,71.25
2018-04-16T07:56:08.907Z,71.09
2018-04-16T07:58:38.013Z,70.92
2018-04-16T08:01:05.566Z,70.69
2018-04-16T08:03:33.153Z,70.70
2018-04-16T08:06:01.245Z,70.96
2018-04-16T08:08:28.795Z,71.01
2018-04-16T08:10:56.994Z,70.89
2018-04-16T08:13:25.139Z,70.66
2018-04-16T08:15:53.361Z,70.79
2018-04-16T08:18:20.921Z,70.99
2018-04-16T08:20:48.482Z,70.68
2018-04-16T08:23:16.106Z,69.90
2018-04-16T08:25:43.662Z,69.92
2018-04-16T08:28:11.240Z,69.36
2018-04-16T08:30:39.701Z,68.98
2018-04-16T08:33:08.760Z,68.32
2018-04-16T08:35:36.349Z,68.08
2018-04-16T08:38:05.074Z,67.15
2018-04-16T08:40:32.622Z,66.64
2018-04-16T08:43:00.178Z,67.10
2018-04-16T08:45:28.251Z,67.46
2018-04-16T08:47:56.217Z,67.36
2018-04-16T08:50:23.759Z,67.34
2018-04-16T08:52:51.310Z,67.26
2018-04-16T08:55:19.842Z,66.94
2018-04-16T08:57:47.679Z,67.00
2018-04-16T09:00:15.536Z,66.70
2018-04-16T09:02:43.623Z,66.54
2018-04-16T09:05:11.195Z,65.72
2018-04-16T09:07:39.055Z,65.71
2018-04-16T09:10:06.810Z,65.61
2018-04-16T09:12:35.136Z,64.99
2018-04-16T09:15:03.362Z,64.39
2018-04-16T09:17:30.920Z,64.25
2018-04-16T09:19:58.471Z,64.37
2018-04-16T09:22:26.031Z,64.28
2018-04-16T09:24:53.572Z,64.43
2018-04-16T09:27:21.722Z,64.56
2018-04-16T09:29:49.273Z,63.93
2018-04-16T09:32:17.297Z,63.50
2018-04-16T09:34:44.849Z,63.62
2018-04-16T09:37:12.379Z,63.75
2018-04-16T09:39:41.589Z,63.55
2018-04-16T09:42:09.199Z,64.41
2018-04-16T09:44:38.875Z,65.16
2018-04-16T09:47:08.034Z,65.61
2018-04-16T09:49:36.236Z,66.26
2018-04-16T09:52:03.786Z,66.43
2018-04-16T09:54:31.985Z,66.79
2018-04-16T09:56:59.529Z,67.12
2018-04-16T09:59:27.779Z,67.16
2018-04-16T10:01:56.000Z,67.18
2018-04-16T10:04:23.543Z,67.63
2018-04-16T10:06:51.074Z,67.73
2018-04-16T10:09:18.660Z,67.77
2018-04-16T10:11:46.954Z,67.89
2018-04-16T10:14:14.883Z,68.35
2018-04-16T10:16:42.479Z,68.29
2018-04-16T10:19:10.043Z,68.52
2018-04-16T10:21:38.346Z,68.49
2018-04-16T10:24:05.927Z,68.95
2018-04-16T10:26:33.475Z,68.96
2018-04-16T10:29:01.150Z,69.41
2018-04-16T10:31:28.708Z,69.60
2018-04-16T10:33:56.983Z,69.36
2018-04-16T10:36:24.523Z,69.04
2018-04-16T10:38:52.719Z,68.96
2018-04-16T10:41:20.275Z,69.06
2018-04-16T10:43:48.691Z,69.38
2018-04-16T10:46:16.251Z,69.18
2018-04-16T10:48:44.127Z,69.34
2018-04-16T10:51:11.670Z,69.38
2018-04-16T10:53:39.753Z,69.04
2018-04-16T10:56:08.074Z,68.65
2018-04-16T10:58:36.179Z,68.54
2018-04-16T11:01:03.732Z,68.24
2018-04-16T11:03:31.259Z,67.98
2018-04-16T11:05:58.870Z,67.14
2018-04-16T11:08:26.403Z,66.96
2018-04-16T11:10:54.774Z,67.22
2018-04-16T11:13:22.902Z,67.30
2018-04-16T11:15:51.379Z,67.32
2018-04-16T11:18:18.911Z,67.03
2018-04-16T11:20:46.438Z,66.87
2018-04-16T11:23:14.023Z,66.95
2018-04-16T11:25:41.604Z,66.29
2018-04-16T11:28:09.329Z,66.57
2018-04-16T11:30:37.165Z,66.08
2018-04-16T11:33:05.525Z,65.96
2018-04-16T11:35:33.060Z,66.08
2018-04-16T11:38:01.368Z,65.86
2018-04-16T11:40:28.886Z,66.03
2018-04-16T11:42:56.412Z,66.07
2018-04-16T11:45:24.647Z,65.74
2018-04-16T11:47:52.719Z,65.00
2018-04-16T11:50:20.290Z,64.81
2018-04-16T11:52:47.887Z,64.73
2018-04-16T11:55:15.989Z,64.13
2018-04-16T11:57:44.051Z,64.38
2018-04-16T12:00:12.255Z,64.01
2018-04-16T12:02:39.808Z,63.93
2018-04-16T12:05:07.592Z,63.26
2018-04-16T12:07:35.203Z,62.83
2018-04-16T12:10:02.743Z,62.83
2018-04-16T12:12:30.931Z,61.85
2018-04-16T12:14:59.356Z,61.11
2018-04-16T12:17:26.933Z,60.95
2018-04-16T12:19:54.491Z,60.42
2018-04-16T12:22:22.067Z,60.13
2018-04-16T12:24:49.711Z,59.79
2018-04-16T12:27:17.234Z,59.58
2018-04-16T12:29:44.811Z,59.48
2018-04-16T12:32:12.999Z,59.45
2018-04-16T12:34:40.540Z,59.06
2018-04-16T12:37:08.166Z,59.00
2018-04-16T12:39:36.394Z,58.11
2018-04-16T12:42:03.941Z,58.78
2018-04-16T12:44:32.338Z,58.90
2018-04-16T12:46:59.896Z,59.30
2018-04-16T12:49:28.526Z,59.62
2018-04-16T12:51:56.064Z,58.68
2018-04-16T12:54:24.515Z,59.19
2018-04-16T12:56:52.794Z,58.91
2018-04-16T12:59:21.473Z,58.68
2018-04-16T13:01:49.025Z,58.91
2018-04-16T13:04:16.548Z,58.79
2018-04-16T13:06:44.126Z,59.07
2018-04-16T13:09:11.648Z,57.91
2018-04-16T13:11:39.858Z,57.71
2018-04-16T13:14:09.191Z,56.95
2018-04-16T13:16:36.948Z,56.32
2018-04-16T13:19:04.617Z,57.15
2018-04-16T13:21:32.185Z,56.55
2018-04-16T13:23:59.722Z,55.49
2018-04-16T13:26:27.243Z,55.34
2018-04-16T13:28:55.116Z,55.72
2018-04-16T13:31:22.639Z,54.68
2018-04-16T13:33:50.871Z,54.49
2018-04-16T13:36:18.404Z,54.85
2018-04-16T13:38:46.734Z,54.71
2018-04-16T13:41:14.259Z,53.99
2018-04-16T13:43:43.469Z,54.47
2018-04-16T13:46:11.107Z,54.39
2018-04-16T13:48:39.256Z,54.31
2018-04-16T13:51:07.567Z,54.54
2018-04-16T13:53:35.107Z,54.79
2018-04-16T13:56:03.322Z,55.16
2018-04-16T13:58:31.418Z,55.16
2018-04-16T14:00:58.962Z,54.78
2018-04-16T14:03:26.497Z,55.37
2018-04-16T14:05:54.151Z,55.39
2018-04-16T14:08:21.672Z,55.04
2018-04-16T14:10:50.487Z,55.25
2018-04-16T14:13:18.607Z,55.46
2018-04-16T14:15:47.275Z,55.56
2018-04-16T14:18:14.796Z,55.94
2018-04-16T14:20:42.330Z,55.84
2018-04-16T14:23:09.895Z,56.24
2018-04-16T14:25:37.599Z,56.72
2018-04-16T14:28:05.174Z,57.56
2018-04-16T14:30:32.748Z,57.79
2018-04-16T14:33:00.731Z,57.95
2018-04-16T14:35:28.254Z,58.31
2018-04-16T14:37:55.785Z,58.63
2018-04-16T14:40:23.928Z,58.75
2018-04-16T14:42:51.470Z,58.68
2018-04-16T14:45:19.422Z,58.70
2018-04-16T14:47:47.870Z,58.56
2018-04-16T14:50:16.403Z,58.63
2018-04-16T14:52:43.938Z,58.79
2018-04-16T14:55:12.198Z,59.02
2018-04-16T14:57:39.769Z,58.84
2018-04-16T15:00:08.932Z,58.35
2018-04-16T15:02:36.471Z,57.46
2018-04-16T15:05:04.051Z,57.19
2018-04-16T15:07:31.626Z,56.76
2018-04-16T15:09:59.154Z,56.85
2018-04-16T15:12:28.218Z,56.50
2018-04-16T15:14:56.091Z,56.50
2018-04-16T15:17:23.610Z,56.42
2018-04-16T15:19:51.139Z,56.46
2018-04-16T15:22:18.694Z,56.25
2018-04-16T15:24:46.226Z,56.02
2018-04-16T15:27:13.757Z,56.01
2018-04-16T15:29:41.435Z,55.21
2018-04-16T15:32:10.428Z,54.36
2018-04-16T15:34:38.297Z,54.25
2018-04-16T15:37:05.826Z,54.42
2018-04-16T15:39:34.288Z,54.58
2018-04-16T15:42:01.822Z,54.29
2018-04-16T15:44:30.182Z,54.49
2018-04-16T15:46:58.294Z,54.69
2018-04-16T15:49:26.735Z,54.79
2018-04-16T15:51:54.265Z,54.89
2018-04-16T15:54:22.355Z,55.12
2018-04-16T15:56:49.904Z,55.59
2018-04-16T15:59:17.803Z,55.59
2018-04-16T16:01:45.342Z,55.92
2018-04-16T16:04:12.863Z,55.46
2018-04-16T16:06:40.453Z,53.99
2018-04-16T16:09:08.112Z,52.98
2018-04-16T16:11:36.297Z,53.38
2018-04-16T16:14:04.879Z,54.21
2018-04-16T16:16:32.795Z,54.99
2018-04-16T16:19:00.324Z,55.74
2018-04-16T16:21:27.861Z,56.40
2018-04-16T16:23:55.432Z,57.51
2018-04-16T16:26:23.689Z,58.27
2018-04-16T16:28:51.223Z,59.31
2018-04-16T16:31:18.751Z,59.48
2018-04-16T16:33:46.942Z,59.59
2018-04-16T16:36:14.587Z,59.46
2018-04-16T16:38:42.834Z,58.50
2018-04-16T16:41:10.377Z,58.60
2018-04-16T16:43:38.881Z,58.90
2018-04-16T16:46:06.461Z,59.58
2018-04-16T16:48:34.451Z,60.17
2018-04-16T16:51:01.970Z,60.65
2018-04-16T16:53:29.502Z,61.25
2018-04-16T16:55:57.901Z,61.91
2018-04-16T16:58:25.846Z,62.49
2018-04-16T17:00:53.384Z,62.76
2018-04-16T17:03:20.913Z,63.06
2018-04-16T17:05:48.478Z,63.31
2018-04-16T17:08:16.020Z,63.58
2018-04-16T17:10:44.311Z,63.68
2018-04-16T17:13:12.239Z,62.73
2018-04-16T17:15:40.285Z,62.49
2018-04-16T17:18:08.275Z,62.73
2018-04-16T17:20:35.844Z,62.97
2018-04-16T17:23:03.426Z,63.09
2018-04-16T17:25:30.954Z,63.42
2018-04-16T17:27:58.492Z,63.57
2018-04-16T17:30:26.049Z,63.69
2018-04-16T17:32:54.221Z,63.79
2018-04-16T17:35:21.781Z,63.94
2018-04-16T17:37:49.318Z,64.03
2018-04-16T17:40:17.420Z,63.99
2018-04-16T17:42:45.470Z,63.61
2018-04-16T17:45:13.547Z,63.12
2018-04-16T17:47:42.408Z,62.67
2018-04-16T17:50:09.931Z,61.94
2018-04-16T17:52:38.599Z,61.55
2018-04-16T17:55:06.833Z,61.69
2018-04-16T17:57:34.394Z,61.74
2018-04-16T18:00:02.646Z,62.23
2018-04-16T18:02:30.251Z,62.80
2018-04-16T18:04:57.786Z,63.35
2018-04-16T18:07:25.346Z,64.06
2018-04-16T18:09:52.888Z,64.32
2018-04-16T18:12:20.895Z,64.94
2018-04-16T18:14:49.111Z,65.21
2018-04-16T18:17:16.694Z,65.46
2018-04-16T18:19:44.222Z,65.75
2018-04-16T18:22:11.779Z,66.07
2018-04-16T18:24:39.378Z,66.29
2018-04-16T18:27:07.624Z,66.40
2018-04-16T18:29:35.264Z,66.76
2018-04-16T18:32:04.080Z,66.57
2018-04-16T18:34:31.610Z,66.39
2018-04-16T18:36:59.151Z,66.61
2018-04-16T18:39:27.410Z,67.23
2018-04-16T18:41:55.696Z,66.85
2018-04-16T18:44:23.992Z,67.13
2018-04-16T18:46:52.232Z,67.17
2018-04-16T18:49:20.175Z,67.53
2018-04-16T18:51:47.956Z,68.02
2018-04-16T18:54:16.633Z,68.12
2018-04-16T18:56:44.198Z,68.03
2018-04-16T18:59:12.110Z,68.12
2018-04-16T19:01:39.671Z,68.57
2018-04-16T19:04:07.387Z,68.54
2018-04-16T19:06:34.992Z,68.83
2018-04-16T19:09:02.585Z,69.50
2018-04-16T19:11:30.763Z,70.71
2018-04-16T19:13:58.975Z,70.65
2018-04-16T19:16:26.521Z,70.64
2018-04-16T19:18:54.047Z,70.56
2018-04-16T19:21:27.006Z,71.19
2018-04-16T19:23:54.560Z,71.53
2018-04-16T19:26:22.092Z,72.05
2018-04-16T19:28:49.735Z,72.39
2018-04-16T19:31:17.268Z,72.05
2018-04-16T19:33:51.256Z,72.24
2018-04-16T19:36:19.799Z,72.42
2018-04-16T19:38:48.065Z,73.53
2018-04-16T19:41:16.222Z,74.07
2018-04-16T19:43:44.507Z,73.91
2018-04-16T19:46:12.030Z,74.20
2018-04-16T19:48:45.720Z,74.43
2018-04-16T19:51:13.250Z,74.47
2018-04-16T19:53:41.534Z,74.55
2018-04-16T19:56:29.331Z,74.58
2018-04-16T19:58:57.535Z,74.54
2018-04-16T20:01:25.090Z,74.56
2018-04-16T20:03:58.303Z,74.61
2018-04-16T20:06:25.833Z,74.63
2018-04-16T20:08:53.363Z,74.48
2018-04-16T20:11:21.658Z,74.36
2018-04-16T20:13:49.833Z,74.08
2018-04-16T20:16:17.361Z,73.92
2018-04-16T20:18:44.924Z,74.14
2018-04-16T20:21:12.478Z,74.16
2018-04-16T20:23:40.013Z,74.33
2018-04-16T20:26:07.951Z,74.56
2018-04-16T20:28:35.518Z,74.94
2018-04-16T20:31:03.054Z,75.12
2018-04-16T20:33:31.421Z,75.53
2018-04-16T20:35:59.471Z,75.88
2018-04-16T20:38:27.804Z,76.11
2018-04-16T20:40:55.345Z,76.46
2018-04-16T20:43:23.216Z,76.46
2018-04-16T20:45:51.152Z,76.18
2018-04-16T20:48:19.039Z,76.53
2018-04-16T20:50:46.620Z,76.77
2018-04-16T20:53:14.135Z,76.79
2018-04-16T20:55:42.058Z,76.72
2018-04-16T20:58:10.433Z,76.62
2018-04-16T21:00:38.980Z,77.03
2018-04-16T21:03:06.580Z,77.25
2018-04-16T21:05:34.227Z,76.93
2018-04-16T21:08:01.770Z,77.16
2018-04-16T21:10:29.405Z,77.42
2018-04-16T21:12:57.700Z,77.49
2018-04-16T21:15:25.811Z,77.54
2018-04-16T21:17:53.394Z,77.56
2018-04-16T21:20:20.914Z,77.76
2018-04-16T21:22:48.564Z,77.64
2018-04-16T21:25:16.105Z,77.74
2018-04-16T21:27:43.869Z,77.28
2018-04-16T21:30:11.411Z,77.37
2018-04-16T21:32:40.243Z,77.64
2018-04-16T21:35:07.930Z,77.60
2018-04-16T21:37:35.463Z,77.87
2018-04-16T21:40:03.709Z,77.94
2018-04-16T21:42:31.875Z,78.21
2018-04-16T21:44:59.918Z,77.99
2018-04-16T21:47:28.458Z,78.22
2018-04-16T21:49:56.471Z,77.99
2018-04-16T21:52:24.008Z,78.33
2018-04-16T21:54:52.175Z,78.27
2018-04-16T21:57:19.713Z,78.49
2018-04-16T21:59:47.995Z,79.13
2018-04-16T22:02:15.541Z,79.04
2018-04-16T22:04:43.084Z,78.62
2018-04-16T22:07:10.645Z,78.17
2018-04-16T22:09:39.270Z,78.17
2018-04-16T22:12:07.736Z,77.18
2018-04-16T22:14:35.795Z,76.56
2018-04-16T22:17:03.335Z,76.28
2018-04-16T22:19:30.872Z,75.99
2018-04-16T22:21:58.439Z,75.93
2018-04-16T22:24:25.971Z,76.79
2018-04-16T22:26:53.518Z,76.97
2018-04-16T22:29:21.926Z,77.30
2018-04-16T22:31:50.968Z,76.47
2018-04-16T22:34:18.497Z,76.10
2018-04-16T22:36:46.034Z,75.87
2018-04-16T22:39:14.364Z,75.87
2018-04-16T22:41:41.899Z,76.54
2018-04-16T22:44:10.418Z,76.46
2018-04-16T22:46:38.204Z,77.28
2018-04-16T22:49:06.501Z,77.32
2018-04-16T22:51:34.087Z,77.15
2018-04-16T22:54:02.202Z,77.29
2018-04-16T22:56:29.754Z,77.86
2018-04-16T22:58:57.724Z,78.64
2018-04-16T23:01:25.285Z,80.00
2018-04-16T23:03:52.949Z,78.93
2018-04-16T23:06:20.517Z,79.48
2018-04-16T23:08:48.047Z,80.09
2018-04-16T23:11:16.211Z,80.28
2018-04-16T23:13:44.516Z,81.82
2018-04-16T23:16:12.051Z,81.58
2018-04-16T23:18:39.642Z,81.80
2018-04-16T23:21:07.487Z,81.08
2018-04-16T23:23:35.031Z,80.79
2018-04-16T23:26:03.495Z,81.73
2018-04-16T23:28:31.794Z,82.20
2018-04-16T23:30:59.318Z,82.42
2018-04-16T23:33:27.834Z,82.42
2018-04-16T23:35:55.389Z,82.80
2018-04-16T23:38:24.421Z,82.93
2018-04-16T23:40:52.042Z,82.98
2018-04-16T23:43:19.762Z,82.61
2018-04-16T23:45:47.999Z,82.93
2018-04-16T23:48:16.051Z,83.03
2018-04-16T23:50:43.577Z,82.84
2018-04-16T23:53:11.250Z,81.93
2018-04-16T23:55:39.397Z,82.52
2018-04-16T23:58:08.054Z,82.85
